»·PEaware :: AAL731 KSNA-KLAS

AAL731 :: KSNA-KLAS

FLIGHT INFORMATION

Flight Status: Arrived
Operator:
American Airlines
More flights by this operator :: More flights under this callsign
Pilot: Joshua O. (1597)
Aircraft: BOEING 737-800
(B738)
More flights by this aircraft type
Origin: KSNA John Wayne-Orange Co
United States
Destination: KLAS McCarran Intl
United States
More flights between these airports :: More routes between these airports
Route: FINZZ2 MISEN KEPEC6
File this flight plan on PilotEdge
Remarks:
Altitude:
(Current/Filed)
25,000ft
Speed:
(Current/Filed)
480kts
Departed: 30-Jul-20 04:17 PM
Arrived: 30-Jul-20 05:00 PM
Distance/Time
Traveled:
197nm/0:43
Distance/Time
To Go:
Arrived

Flight Plot

Page will automatically refresh every two minutes.


Map Options




Map Legend


Flown Route
Filed Route
Departure Airport
Arrival Airport
Navaid (VOR, NDB)
Fix

Horizontal Profiles

Position Reports

Time Latitude Longitude Heading Altitude Ground
Speed
30-Jul-20 15:38 33.679353 -117.862384 117 66ft 0kts
30-Jul-20 15:39 33.679353 -117.862384 117 66ft 0kts
30-Jul-20 15:40 33.679353 -117.862384 117 66ft 0kts
30-Jul-20 15:41 33.679353 -117.862384 117 66ft 0kts
30-Jul-20 15:46 33.679353 -117.862384 0 66ft 0kts
30-Jul-20 15:47 33.679353 -117.862384 117 66ft 0kts
30-Jul-20 15:48 33.679353 -117.862384 117 66ft 0kts
30-Jul-20 15:49 33.679353 -117.862384 117 66ft 0kts
30-Jul-20 15:50 33.679353 -117.862384 117 66ft 0kts
30-Jul-20 15:51 33.679353 -117.862384 117 66ft 0kts
30-Jul-20 15:52 33.679353 -117.862384 117 66ft 0kts
30-Jul-20 15:53 33.679353 -117.862384 117 66ft 0kts
30-Jul-20 15:54 33.679353 -117.862384 117 66ft 0kts
30-Jul-20 15:55 33.679353 -117.862384 117 66ft 0kts
30-Jul-20 15:56 33.679353 -117.862384 117 66ft 0kts
30-Jul-20 15:57 33.679353 -117.862384 117 66ft 0kts
30-Jul-20 15:58 33.679353 -117.862384 117 66ft 0kts
30-Jul-20 15:59 33.679353 -117.862384 117 66ft 0kts
30-Jul-20 16:00 33.679353 -117.862385 117 66ft 0kts
30-Jul-20 16:01 33.679353 -117.862385 117 66ft 0kts
30-Jul-20 16:02 33.679353 -117.862385 117 66ft 0kts
30-Jul-20 16:03 33.679353 -117.862385 117 66ft 0kts
30-Jul-20 16:04 33.679353 -117.862385 117 66ft 0kts
30-Jul-20 16:05 33.679353 -117.862385 117 66ft 0kts
30-Jul-20 16:06 33.679353 -117.862385 117 66ft 0kts
30-Jul-20 16:07 33.679353 -117.862385 117 66ft 0kts
30-Jul-20 16:08 33.679513 -117.862771 95 66ft 2kts
30-Jul-20 16:09 33.679308 -117.863174 27 66ft 0kts
30-Jul-20 16:10 33.679308 -117.863174 27 66ft 0kts
30-Jul-20 16:11 33.679308 -117.863174 27 66ft 0kts
30-Jul-20 16:12 33.679308 -117.863174 27 66ft 0kts
30-Jul-20 16:13 33.680299 -117.862606 9 66ft 3kts
30-Jul-20 16:14 33.681069 -117.863989 295 66ft 4kts
30-Jul-20 16:15 33.681073 -117.865422 206 66ft 21kts
30-Jul-20 16:16 33.650427 -117.884713 210 1730ft 162kts
30-Jul-20 16:17 33.600305 -117.895394 189 3961ft 206kts
30-Jul-20 16:18 33.547270 -117.925879 223 5003ft 217kts
30-Jul-20 16:19 33.505682 -117.990992 255 7728ft 269kts
30-Jul-20 16:20 33.535705 -118.074611 314 10690ft 320kts
30-Jul-20 16:21 33.620536 -118.104325 10 13177ft 366kts
30-Jul-20 16:22 33.715817 -118.056140 25 16090ft 382kts
30-Jul-20 16:23 33.811229 -118.000469 24 18676ft 395kts
30-Jul-20 16:24 33.910383 -117.935698 33 20602ft 423kts
30-Jul-20 16:25 34.008572 -117.850003 35 22019ft 453kts
30-Jul-20 16:26 34.103260 -117.746221 47 23712ft 467kts
30-Jul-20 16:27 34.189301 -117.626528 49 24995ft 477kts
30-Jul-20 16:28 34.273728 -117.503161 50 25020ft 493kts
30-Jul-20 16:29 34.361835 -117.372007 50 25059ft 503kts
30-Jul-20 16:30 34.449810 -117.240336 51 25059ft 503kts
30-Jul-20 16:31 34.537741 -117.108297 50 25069ft 501kts
30-Jul-20 16:32 34.626798 -116.977919 49 25036ft 501kts
30-Jul-20 16:33 34.716141 -116.847648 49 24983ft 502kts
30-Jul-20 16:34 34.805315 -116.717167 49 24981ft 501kts
30-Jul-20 16:35 34.902895 -116.599155 38 24979ft 463kts
30-Jul-20 16:36 34.999524 -116.504329 36 25000ft 450kts
30-Jul-20 16:37 35.096642 -116.408203 41 24279ft 443kts
30-Jul-20 16:38 35.183417 -116.301935 44 24037ft 449kts
30-Jul-20 16:39 35.270491 -116.193228 44 24036ft 446kts
30-Jul-20 16:40 35.356708 -116.084960 44 23021ft 437kts
30-Jul-20 16:41 35.440616 -115.979174 45 20441ft 427kts
30-Jul-20 16:42 35.522344 -115.875670 45 17922ft 416kts
30-Jul-20 16:43 35.601622 -115.774874 45 15415ft 405kts
30-Jul-20 16:44 35.678470 -115.676948 45 13148ft 387kts
30-Jul-20 16:45 35.751049 -115.596850 27 13055ft 333kts
30-Jul-20 16:46 35.839404 -115.570970 0 13055ft 327kts
30-Jul-20 16:47 35.930391 -115.563500 13 13033ft 329kts
30-Jul-20 16:48 35.995121 -115.488447 67 13012ft 331kts
30-Jul-20 16:49 36.026119 -115.383981 81 13011ft 304kts
30-Jul-20 16:50 36.024386 -115.280830 97 13030ft 302kts
30-Jul-20 16:51 36.016841 -115.177424 97 13045ft 301kts
30-Jul-20 16:52 36.009639 -115.070711 95 10795ft 320kts
30-Jul-20 16:53 36.027173 -114.969491 29 7897ft 314kts
30-Jul-20 16:54 36.109483 -114.968088 350 5970ft 283kts
30-Jul-20 16:55 36.170502 -115.011046 298 5389ft 246kts
30-Jul-20 16:56 36.170460 -115.086509 258 4942ft 194kts
30-Jul-20 16:57 36.141060 -115.128671 209 3022ft 164kts
30-Jul-20 16:58 36.099454 -115.153008 207 2182ft 161kts
30-Jul-20 16:59 36.078061 -115.164150 108 2166ft 15kts
30-Jul-20 17:00 36.078043 -115.163438 88 2164ft 1kts
30-Jul-20 17:01 36.078032 -115.162510 92 2161ft 6kts
30-Jul-20 17:02 36.078018 -115.158685 88 2148ft 17kts
30-Jul-20 17:03 36.078037 -115.151546 89 2122ft 17kts
30-Jul-20 17:04 36.077587 -115.144117 94 2097ft 19kts
30-Jul-20 17:05 36.079247 -115.141558 25 2085ft 6kts
30-Jul-20 17:06 36.079892 -115.140441 60 2081ft 0kts
30-Jul-20 17:07 36.079892 -115.140441 60 2081ft 0kts
30-Jul-20 17:09 36.079892 -115.140441 60 2081ft 0kts

Navigation Log

Ident Type
Flight plan parsing failed, navigation log unavailable